sensor_id;sensor_type;location;lat;lon;timestamp;temperature;humidity
5226;DHT22;2632;51.666;7.146;2023-03-21T00:00:39;10.40;99.90
5226;DHT22;2632;51.666;7.146;2023-03-21T00:03:06;10.40;99.90
5226;DHT22;2632;51.666;7.146;2023-03-21T00:05:39;10.40;99.90
5226;DHT22;2632;51.666;7.146;2023-03-21T00:08:06;10.40;99.90
5226;DHT22;2632;51.666;7.146;2023-03-21T00:10:33;10.40;99.90
5226;DHT22;2632;51.666;7.146;2023-03-21T00:13:10;10.40;99.90
5226;DHT22;2632;51.666;7.146;2023-03-21T00:15:39;10.40;99.90
5226;DHT22;2632;51.666;7.146;2023-03-21T00:18:29;10.40;99.90
5226;DHT22;2632;51.666;7.146;2023-03-21T00:20:58;10.40;99.90
5226;DHT22;2632;51.666;7.146;2023-03-21T00:23:45;10.40;99.90
5226;DHT22;2632;51.666;7.146;2023-03-21T00:26:13;10.40;99.90
5226;DHT22;2632;51.666;7.146;2023-03-21T00:28:41;10.40;99.90
5226;DHT22;2632;51.666;7.146;2023-03-21T00:31:08;10.40;99.90
5226;DHT22;2632;51.666;7.146;2023-03-21T00:33:35;10.40;99.90
5226;DHT22;2632;51.666;7.146;2023-03-21T00:36:05;10.40;99.90
5226;DHT22;2632;51.666;7.146;2023-03-21T00:38:33;10.40;99.90
5226;DHT22;2632;51.666;7.146;2023-03-21T00:41:02;10.40;99.90
5226;DHT22;2632;51.666;7.146;2023-03-21T00:43:43;10.40;99.90
5226;DHT22;2632;51.666;7.146;2023-03-21T00:46:09;10.40;99.90
5226;DHT22;2632;51.666;7.146;2023-03-21T00:48:36;10.40;99.90
5226;DHT22;2632;51.666;7.146;2023-03-21T00:51:11;10.50;99.90
5226;DHT22;2632;51.666;7.146;2023-03-21T00:53:41;10.50;99.90
5226;DHT22;2632;51.666;7.146;2023-03-21T00:56:08;10.50;99.90
5226;DHT22;2632;51.666;7.146;2023-03-21T00:58:34;10.50;99.90
5226;DHT22;2632;51.666;7.146;2023-03-21T01:01:01;10.50;99.90
5226;DHT22;2632;51.666;7.146;2023-03-21T01:03:29;10.50;99.90
5226;DHT22;2632;51.666;7.146;2023-03-21T01:05:56;10.50;99.90
5226;DHT22;2632;51.666;7.146;2023-03-21T01:08:39;10.40;99.90
5226;DHT22;2632;51.666;7.146;2023-03-21T01:11:26;10.50;99.90
5226;DHT22;2632;51.666;7.146;2023-03-21T01:13:54;10.50;99.90
5226;DHT22;2632;51.666;7.146;2023-03-21T01:16:37;10.50;99.90
5226;DHT22;2632;51.666;7.146;2023-03-21T01:19:05;10.50;99.90
5226;DHT22;2632;51.666;7.146;2023-03-21T01:21:40;10.50;99.90
5226;DHT22;2632;51.666;7.146;2023-03-21T01:24:07;10.50;99.90
5226;DHT22;2632;51.666;7.146;2023-03-21T01:26:34;10.50;99.90
5226;DHT22;2632;51.666;7.146;2023-03-21T01:29:03;10.50;99.90
5226;DHT22;2632;51.666;7.146;2023-03-21T01:31:30;10.40;99.90
5226;DHT22;2632;51.666;7.146;2023-03-21T01:33:57;10.40;99.90
5226;DHT22;2632;51.666;7.146;2023-03-21T01:36:25;10.50;99.90
5226;DHT22;2632;51.666;7.146;2023-03-21T01:38:52;10.40;99.90
5226;DHT22;2632;51.666;7.146;2023-03-21T01:43:54;10.40;99.90
5226;DHT22;2632;51.666;7.146;2023-03-21T01:49:26;10.40;99.90
5226;DHT22;2632;51.666;7.146;2023-03-21T01:51:58;10.30;99.90
5226;DHT22;2632;51.666;7.146;2023-03-21T01:54:38;10.40;99.90
5226;DHT22;2632;51.666;7.146;2023-03-21T01:57:11;10.40;99.90
5226;DHT22;2632;51.666;7.146;2023-03-21T01:59:45;10.40;99.90
5226;DHT22;2632;51.666;7.146;2023-03-21T02:02:21;10.40;99.90
5226;DHT22;2632;51.666;7.146;2023-03-21T02:04:49;10.40;99.90
5226;DHT22;2632;51.666;7.146;2023-03-21T02:07:26;10.30;99.90
5226;DHT22;2632;51.666;7.146;2023-03-21T02:09:55;10.30;99.90
5226;DHT22;2632;51.666;7.146;2023-03-21T02:12:24;10.30;99.90
5226;DHT22;2632;51.666;7.146;2023-03-21T02:14:52;10.40;99.90
5226;DHT22;2632;51.666;7.146;2023-03-21T02:17:25;10.30;99.90
5226;DHT22;2632;51.666;7.146;2023-03-21T02:20:08;10.40;99.90
5226;DHT22;2632;51.666;7.146;2023-03-21T02:23:00;10.30;99.90
5226;DHT22;2632;51.666;7.146;2023-03-21T02:28:36;10.30;99.90
5226;DHT22;2632;51.666;7.146;2023-03-21T02:42:12;10.30;99.90
5226;DHT22;2632;51.666;7.146;2023-03-21T02:47:13;10.30;99.90
5226;DHT22;2632;51.666;7.146;2023-03-21T02:49:51;10.40;99.90
5226;DHT22;2632;51.666;7.146;2023-03-21T02:52:27;10.30;99.90
5226;DHT22;2632;51.666;7.146;2023-03-21T02:55:08;10.30;99.90
5226;DHT22;2632;51.666;7.146;2023-03-21T02:57:41;10.30;99.90
5226;DHT22;2632;51.666;7.146;2023-03-21T03:00:12;10.40;99.90
5226;DHT22;2632;51.666;7.146;2023-03-21T03:02:44;10.40;99.90
5226;DHT22;2632;51.666;7.146;2023-03-21T03:05:39;10.30;99.90
5226;DHT22;2632;51.666;7.146;2023-03-21T03:20:17;10.40;99.90
5226;DHT22;2632;51.666;7.146;2023-03-21T03:22:54;10.30;99.90
5226;DHT22;2632;51.666;7.146;2023-03-21T03:25:30;10.30;99.90
5226;DHT22;2632;51.666;7.146;2023-03-21T03:28:09;10.30;99.90
5226;DHT22;2632;51.666;7.146;2023-03-21T03:30:37;10.30;99.90
5226;DHT22;2632;51.666;7.146;2023-03-21T03:33:15;10.20;99.90
5226;DHT22;2632;51.666;7.146;2023-03-21T03:35:44;10.20;99.90
5226;DHT22;2632;51.666;7.146;2023-03-21T03:38:25;10.20;99.90
5226;DHT22;2632;51.666;7.146;2023-03-21T03:41:01;10.20;99.90
5226;DHT22;2632;51.666;7.146;2023-03-21T03:43:38;10.20;99.90
5226;DHT22;2632;51.666;7.146;2023-03-21T03:46:16;10.20;99.90
5226;DHT22;2632;51.666;7.146;2023-03-21T03:48:51;10.20;99.90
5226;DHT22;2632;51.666;7.146;2023-03-21T03:51:33;10.10;99.90
5226;DHT22;2632;51.666;7.146;2023-03-21T03:54:05;10.00;99.90
5226;DHT22;2632;51.666;7.146;2023-03-21T03:56:32;10.00;99.90
5226;DHT22;2632;51.666;7.146;2023-03-21T03:59:01;10.10;99.90
5226;DHT22;2632;51.666;7.146;2023-03-21T04:01:30;10.10;99.90
5226;DHT22;2632;51.666;7.146;2023-03-21T04:03:56;10.00;99.90
5226;DHT22;2632;51.666;7.146;2023-03-21T04:06:38;10.10;99.90
5226;DHT22;2632;51.666;7.146;2023-03-21T04:09:04;10.10;99.90
5226;DHT22;2632;51.666;7.146;2023-03-21T04:11:46;10.00;99.90
5226;DHT22;2632;51.666;7.146;2023-03-21T04:14:13;10.00;99.90
5226;DHT22;2632;51.666;7.146;2023-03-21T04:16:40;10.00;99.90
5226;DHT22;2632;51.666;7.146;2023-03-21T04:19:06;10.00;99.90
5226;DHT22;2632;51.666;7.146;2023-03-21T04:21:33;10.00;99.90
5226;DHT22;2632;51.666;7.146;2023-03-21T04:23:59;10.00;99.90
5226;DHT22;2632;51.666;7.146;2023-03-21T04:26:26;9.90;99.90
5226;DHT22;2632;51.666;7.146;2023-03-21T04:28:59;9.90;99.90
5226;DHT22;2632;51.666;7.146;2023-03-21T04:31:26;9.90;99.90
5226;DHT22;2632;51.666;7.146;2023-03-21T04:33:54;9.90;99.90
5226;DHT22;2632;51.666;7.146;2023-03-21T04:36:21;9.90;99.90
5226;DHT22;2632;51.666;7.146;2023-03-21T04:38:52;9.90;99.90
5226;DHT22;2632;51.666;7.146;2023-03-21T04:41:19;9.90;99.90
5226;DHT22;2632;51.666;7.146;2023-03-21T04:43:46;9.90;99.90
5226;DHT22;2632;51.666;7.146;2023-03-21T04:46:12;9.90;99.90
5226;DHT22;2632;51.666;7.146;2023-03-21T04:48:39;9.90;99.90
5226;DHT22;2632;51.666;7.146;2023-03-21T04:51:06;9.90;99.90
5226;DHT22;2632;51.666;7.146;2023-03-21T04:53:33;9.90;99.90
5226;DHT22;2632;51.666;7.146;2023-03-21T04:55:59;9.90;99.90
5226;DHT22;2632;51.666;7.146;2023-03-21T04:58:29;9.90;99.90
5226;DHT22;2632;51.666;7.146;2023-03-21T05:00:55;9.90;99.90
5226;DHT22;2632;51.666;7.146;2023-03-21T05:03:23;10.00;99.90
5226;DHT22;2632;51.666;7.146;2023-03-21T05:05:50;9.90;99.90
5226;DHT22;2632;51.666;7.146;2023-03-21T05:08:16;9.90;99.90
5226;DHT22;2632;51.666;7.146;2023-03-21T05:10:43;9.90;99.90
5226;DHT22;2632;51.666;7.146;2023-03-21T05:13:10;9.90;99.90
5226;DHT22;2632;51.666;7.146;2023-03-21T05:15:36;9.80;99.90
5226;DHT22;2632;51.666;7.146;2023-03-21T05:18:04;9.90;99.90
5226;DHT22;2632;51.666;7.146;2023-03-21T05:20:39;9.90;99.90
5226;DHT22;2632;51.666;7.146;2023-03-21T05:23:10;9.90;99.90
5226;DHT22;2632;51.666;7.146;2023-03-21T05:25:38;9.90;99.90
5226;DHT22;2632;51.666;7.146;2023-03-21T05:28:06;9.90;99.90
5226;DHT22;2632;51.666;7.146;2023-03-21T05:30:33;9.90;99.90
5226;DHT22;2632;51.666;7.146;2023-03-21T05:33:00;9.90;99.90
5226;DHT22;2632;51.666;7.146;2023-03-21T05:35:26;9.90;99.90
5226;DHT22;2632;51.666;7.146;2023-03-21T05:37:54;9.90;99.90
5226;DHT22;2632;51.666;7.146;2023-03-21T05:40:20;10.00;99.90
5226;DHT22;2632;51.666;7.146;2023-03-21T05:42:47;10.00;99.90
5226;DHT22;2632;51.666;7.146;2023-03-21T05:45:17;10.00;99.90
5226;DHT22;2632;51.666;7.146;2023-03-21T05:47:44;10.00;99.90
5226;DHT22;2632;51.666;7.146;2023-03-21T05:50:11;10.00;99.90
5226;DHT22;2632;51.666;7.146;2023-03-21T05:52:39;10.10;99.90
5226;DHT22;2632;51.666;7.146;2023-03-21T05:55:06;10.10;99.90
5226;DHT22;2632;51.666;7.146;2023-03-21T05:57:32;10.10;99.90
5226;DHT22;2632;51.666;7.146;2023-03-21T06:00:05;10.10;99.90
5226;DHT22;2632;51.666;7.146;2023-03-21T06:02:33;10.10;99.90
5226;DHT22;2632;51.666;7.146;2023-03-21T06:05:00;10.10;99.90
5226;DHT22;2632;51.666;7.146;2023-03-21T06:07:26;10.10;99.90
5226;DHT22;2632;51.666;7.146;2023-03-21T06:09:53;10.10;99.90
5226;DHT22;2632;51.666;7.146;2023-03-21T06:12:20;10.10;99.90
5226;DHT22;2632;51.666;7.146;2023-03-21T06:14:46;10.20;99.90
5226;DHT22;2632;51.666;7.146;2023-03-21T06:17:13;10.20;99.90
5226;DHT22;2632;51.666;7.146;2023-03-21T06:19:40;10.20;99.90
5226;DHT22;2632;51.666;7.146;2023-03-21T06:22:06;10.10;99.90
5226;DHT22;2632;51.666;7.146;2023-03-21T06:24:33;10.20;99.90
5226;DHT22;2632;51.666;7.146;2023-03-21T06:27:00;10.10;99.90
5226;DHT22;2632;51.666;7.146;2023-03-21T06:29:29;10.10;99.90
5226;DHT22;2632;51.666;7.146;2023-03-21T06:31:56;10.10;99.90
5226;DHT22;2632;51.666;7.146;2023-03-21T06:34:23;10.10;99.90
5226;DHT22;2632;51.666;7.146;2023-03-21T06:36:52;10.10;99.90
5226;DHT22;2632;51.666;7.146;2023-03-21T06:39:20;10.10;99.90
5226;DHT22;2632;51.666;7.146;2023-03-21T06:41:47;10.10;99.90
5226;DHT22;2632;51.666;7.146;2023-03-21T06:44:13;10.10;99.90
5226;DHT22;2632;51.666;7.146;2023-03-21T06:46:40;10.00;99.90
5226;DHT22;2632;51.666;7.146;2023-03-21T06:49:07;10.10;99.90
5226;DHT22;2632;51.666;7.146;2023-03-21T06:51:33;10.00;99.90
5226;DHT22;2632;51.666;7.146;2023-03-21T06:54:00;10.10;99.90
5226;DHT22;2632;51.666;7.146;2023-03-21T06:56:27;10.20;99.90
5226;DHT22;2632;51.666;7.146;2023-03-21T06:58:53;10.20;99.90
5226;DHT22;2632;51.666;7.146;2023-03-21T07:01:20;10.20;99.90
5226;DHT22;2632;51.666;7.146;2023-03-21T07:03:47;10.20;99.90
5226;DHT22;2632;51.666;7.146;2023-03-21T07:06:14;10.20;99.90
5226;DHT22;2632;51.666;7.146;2023-03-21T07:08:41;10.20;99.90
5226;DHT22;2632;51.666;7.146;2023-03-21T07:11:08;10.20;99.90
5226;DHT22;2632;51.666;7.146;2023-03-21T07:13:35;10.20;99.90
5226;DHT22;2632;51.666;7.146;2023-03-21T07:16:02;10.20;99.90
5226;DHT22;2632;51.666;7.146;2023-03-21T07:18:29;10.20;99.90
5226;DHT22;2632;51.666;7.146;2023-03-21T07:20:56;10.30;99.90
5226;DHT22;2632;51.666;7.146;2023-03-21T07:23:24;10.20;99.90
5226;DHT22;2632;51.666;7.146;2023-03-21T07:25:52;10.40;99.90
5226;DHT22;2632;51.666;7.146;2023-03-21T07:28:19;10.40;99.90
5226;DHT22;2632;51.666;7.146;2023-03-21T07:30:52;10.40;99.90
5226;DHT22;2632;51.666;7.146;2023-03-21T07:33:19;10.30;99.90
5226;DHT22;2632;51.666;7.146;2023-03-21T07:35:46;10.40;99.90
5226;DHT22;2632;51.666;7.146;2023-03-21T07:38:12;10.50;99.90
5226;DHT22;2632;51.666;7.146;2023-03-21T07:40:42;10.50;99.90
5226;DHT22;2632;51.666;7.146;2023-03-21T07:43:09;10.50;99.90
5226;DHT22;2632;51.666;7.146;2023-03-21T07:45:35;10.70;99.90
5226;DHT22;2632;51.666;7.146;2023-03-21T07:48:03;10.70;99.90
5226;DHT22;2632;51.666;7.146;2023-03-21T07:50:30;10.70;99.90
5226;DHT22;2632;51.666;7.146;2023-03-21T07:52:57;10.70;99.90
5226;DHT22;2632;51.666;7.146;2023-03-21T07:55:23;10.80;99.90
5226;DHT22;2632;51.666;7.146;2023-03-21T07:57:50;11.00;99.90
5226;DHT22;2632;51.666;7.146;2023-03-21T08:00:20;10.90;99.90
5226;DHT22;2632;51.666;7.146;2023-03-21T08:02:55;11.10;99.90
5226;DHT22;2632;51.666;7.146;2023-03-21T08:05:27;11.10;99.90
5226;DHT22;2632;51.666;7.146;2023-03-21T08:07:54;11.10;99.90
5226;DHT22;2632;51.666;7.146;2023-03-21T08:10:21;11.00;99.90
5226;DHT22;2632;51.666;7.146;2023-03-21T08:12:47;11.00;99.90
5226;DHT22;2632;51.666;7.146;2023-03-21T08:15:14;11.10;99.90
5226;DHT22;2632;51.666;7.146;2023-03-21T08:17:41;11.00;99.90
5226;DHT22;2632;51.666;7.146;2023-03-21T08:20:13;11.00;99.90
5226;DHT22;2632;51.666;7.146;2023-03-21T08:22:41;11.10;99.90
5226;DHT22;2632;51.666;7.146;2023-03-21T08:25:10;11.10;99.90
5226;DHT22;2632;51.666;7.146;2023-03-21T08:27:40;11.00;99.90
5226;DHT22;2632;51.666;7.146;2023-03-21T08:30:11;11.20;99.90
5226;DHT22;2632;51.666;7.146;2023-03-21T08:32:39;11.20;99.90
5226;DHT22;2632;51.666;7.146;2023-03-21T08:35:09;11.50;99.90
5226;DHT22;2632;51.666;7.146;2023-03-21T08:37:37;11.50;99.90
5226;DHT22;2632;51.666;7.146;2023-03-21T08:40:04;11.60;99.90
5226;DHT22;2632;51.666;7.146;2023-03-21T08:42:37;11.90;99.90
5226;DHT22;2632;51.666;7.146;2023-03-21T08:45:05;12.10;99.90
5226;DHT22;2632;51.666;7.146;2023-03-21T08:47:32;12.30;99.90
5226;DHT22;2632;51.666;7.146;2023-03-21T08:49:58;12.30;99.90
5226;DHT22;2632;51.666;7.146;2023-03-21T08:52:26;12.30;99.90
5226;DHT22;2632;51.666;7.146;2023-03-21T08:54:53;12.20;99.90
5226;DHT22;2632;51.666;7.146;2023-03-21T08:57:20;12.20;99.90
5226;DHT22;2632;51.666;7.146;2023-03-21T08:59:47;12.30;99.90
5226;DHT22;2632;51.666;7.146;2023-03-21T09:02:15;12.20;99.90
5226;DHT22;2632;51.666;7.146;2023-03-21T09:04:42;12.00;99.90
5226;DHT22;2632;51.666;7.146;2023-03-21T09:07:11;12.10;99.90
5226;DHT22;2632;51.666;7.146;2023-03-21T09:09:40;12.30;99.90
5226;DHT22;2632;51.666;7.146;2023-03-21T09:12:07;12.40;99.90
5226;DHT22;2632;51.666;7.146;2023-03-21T09:14:35;12.50;99.90
5226;DHT22;2632;51.666;7.146;2023-03-21T09:17:02;12.50;99.90
5226;DHT22;2632;51.666;7.146;2023-03-21T09:19:29;12.50;99.90
5226;DHT22;2632;51.666;7.146;2023-03-21T09:21:57;12.50;99.90
5226;DHT22;2632;51.666;7.146;2023-03-21T09:24:24;12.60;99.90
5226;DHT22;2632;51.666;7.146;2023-03-21T09:26:51;12.70;99.90
5226;DHT22;2632;51.666;7.146;2023-03-21T09:29:18;12.90;99.90
5226;DHT22;2632;51.666;7.146;2023-03-21T09:31:46;13.00;99.90
5226;DHT22;2632;51.666;7.146;2023-03-21T09:34:13;12.70;99.90
5226;DHT22;2632;51.666;7.146;2023-03-21T09:36:41;12.50;99.90
5226;DHT22;2632;51.666;7.146;2023-03-21T09:39:10;12.70;99.90
5226;DHT22;2632;51.666;7.146;2023-03-21T09:44:47;12.70;99.90
5226;DHT22;2632;51.666;7.146;2023-03-21T09:47:25;12.70;99.90
5226;DHT22;2632;51.666;7.146;2023-03-21T09:52:47;12.80;99.90
5226;DHT22;2632;51.666;7.146;2023-03-21T09:55:19;12.50;99.90
5226;DHT22;2632;51.666;7.146;2023-03-21T09:57:51;12.50;99.90
5226;DHT22;2632;51.666;7.146;2023-03-21T10:00:26;12.40;99.90
5226;DHT22;2632;51.666;7.146;2023-03-21T10:02:58;12.20;99.90
5226;DHT22;2632;51.666;7.146;2023-03-21T10:05:32;12.30;99.90
5226;DHT22;2632;51.666;7.146;2023-03-21T10:08:18;12.30;99.90
5226;DHT22;2632;51.666;7.146;2023-03-21T10:10:53;12.40;99.90
5226;DHT22;2632;51.666;7.146;2023-03-21T10:13:26;12.50;99.90
5226;DHT22;2632;51.666;7.146;2023-03-21T10:16:00;12.60;99.90
5226;DHT22;2632;51.666;7.146;2023-03-21T10:18:29;13.00;99.90
5226;DHT22;2632;51.666;7.146;2023-03-21T10:20:56;13.10;99.90
5226;DHT22;2632;51.666;7.146;2023-03-21T10:23:27;13.20;99.90
5226;DHT22;2632;51.666;7.146;2023-03-21T10:25:57;13.20;99.90
5226;DHT22;2632;51.666;7.146;2023-03-21T10:28:32;13.40;99.90
5226;DHT22;2632;51.666;7.146;2023-03-21T10:31:20;13.20;99.90
5226;DHT22;2632;51.666;7.146;2023-03-21T10:33:48;13.30;99.90
5226;DHT22;2632;51.666;7.146;2023-03-21T10:36:26;13.50;99.90
5226;DHT22;2632;51.666;7.146;2023-03-21T10:39:00;13.80;99.90
5226;DHT22;2632;51.666;7.146;2023-03-21T10:41:27;13.80;99.90
5226;DHT22;2632;51.666;7.146;2023-03-21T10:44:11;13.90;99.90
5226;DHT22;2632;51.666;7.146;2023-03-21T10:46:57;14.00;99.90
5226;DHT22;2632;51.666;7.146;2023-03-21T10:49:24;13.80;99.90
5226;DHT22;2632;51.666;7.146;2023-03-21T10:51:57;14.00;99.90
5226;DHT22;2632;51.666;7.146;2023-03-21T10:54:30;13.80;99.90
5226;DHT22;2632;51.666;7.146;2023-03-21T10:57:04;13.70;99.90
5226;DHT22;2632;51.666;7.146;2023-03-21T10:59:38;13.50;99.90
5226;DHT22;2632;51.666;7.146;2023-03-21T11:02:23;13.30;99.90
5226;DHT22;2632;51.666;7.146;2023-03-21T11:04:52;13.30;99.90
5226;DHT22;2632;51.666;7.146;2023-03-21T11:07:20;13.20;99.90
5226;DHT22;2632;51.666;7.146;2023-03-21T11:09:59;13.10;99.90
5226;DHT22;2632;51.666;7.146;2023-03-21T11:12:33;13.10;99.90
5226;DHT22;2632;51.666;7.146;2023-03-21T11:17:47;12.60;99.90
5226;DHT22;2632;51.666;7.146;2023-03-21T11:20:16;12.60;99.90
5226;DHT22;2632;51.666;7.146;2023-03-21T11:22:45;12.60;99.90
5226;DHT22;2632;51.666;7.146;2023-03-21T11:25:31;12.60;99.90
5226;DHT22;2632;51.666;7.146;2023-03-21T11:28:05;12.50;99.90
5226;DHT22;2632;51.666;7.146;2023-03-21T11:30:36;12.30;99.90
5226;DHT22;2632;51.666;7.146;2023-03-21T11:33:14;12.50;99.90
5226;DHT22;2632;51.666;7.146;2023-03-21T11:36:00;12.60;99.90
5226;DHT22;2632;51.666;7.146;2023-03-21T11:38:58;13.10;99.90
5226;DHT22;2632;51.666;7.146;2023-03-21T11:41:30;13.40;99.90
5226;DHT22;2632;51.666;7.146;2023-03-21T11:43:59;13.60;99.90
5226;DHT22;2632;51.666;7.146;2023-03-21T11:46:28;13.70;99.90
5226;DHT22;2632;51.666;7.146;2023-03-21T11:48:57;14.40;99.90
5226;DHT22;2632;51.666;7.146;2023-03-21T11:51:48;14.40;99.90
5226;DHT22;2632;51.666;7.146;2023-03-21T11:54:50;14.10;99.90
5226;DHT22;2632;51.666;7.146;2023-03-21T11:57:34;13.50;99.90
5226;DHT22;2632;51.666;7.146;2023-03-21T12:06:04;13.60;99.90
5226;DHT22;2632;51.666;7.146;2023-03-21T12:08:59;13.70;99.90
5226;DHT22;2632;51.666;7.146;2023-03-21T12:11:54;13.90;99.90
5226;DHT22;2632;51.666;7.146;2023-03-21T12:14:43;14.40;99.90
5226;DHT22;2632;51.666;7.146;2023-03-21T12:17:23;14.60;99.90
5226;DHT22;2632;51.666;7.146;2023-03-21T12:20:05;15.00;99.90
5226;DHT22;2632;51.666;7.146;2023-03-21T12:25:15;15.10;99.90
5226;DHT22;2632;51.666;7.146;2023-03-21T12:27:59;15.00;99.90
5226;DHT22;2632;51.666;7.146;2023-03-21T12:39:19;14.60;99.90
5226;DHT22;2632;51.666;7.146;2023-03-21T12:44:44;15.00;99.90
5226;DHT22;2632;51.666;7.146;2023-03-21T12:47:25;14.80;99.90
5226;DHT22;2632;51.666;7.146;2023-03-21T12:50:12;14.60;99.90
5226;DHT22;2632;51.666;7.146;2023-03-21T12:52:43;14.70;99.90
5226;DHT22;2632;51.666;7.146;2023-03-21T12:55:22;14.50;99.90
5226;DHT22;2632;51.666;7.146;2023-03-21T12:58:12;14.50;99.90
5226;DHT22;2632;51.666;7.146;2023-03-21T13:03:20;14.40;99.90
5226;DHT22;2632;51.666;7.146;2023-03-21T13:06:05;14.70;99.90
5226;DHT22;2632;51.666;7.146;2023-03-21T13:09:01;14.70;99.90
5226;DHT22;2632;51.666;7.146;2023-03-21T13:11:31;14.80;99.90
5226;DHT22;2632;51.666;7.146;2023-03-21T13:16:57;14.60;99.90
5226;DHT22;2632;51.666;7.146;2023-03-21T13:19:38;14.60;99.90
5226;DHT22;2632;51.666;7.146;2023-03-21T13:22:22;14.60;99.90
5226;DHT22;2632;51.666;7.146;2023-03-21T13:25:03;14.50;99.90
5226;DHT22;2632;51.666;7.146;2023-03-21T13:27:35;14.50;99.90
5226;DHT22;2632;51.666;7.146;2023-03-21T13:30:05;14.70;99.70
5226;DHT22;2632;51.666;7.146;2023-03-21T13:32:44;14.80;99.90
5226;DHT22;2632;51.666;7.146;2023-03-21T13:35:20;14.90;99.90
5226;DHT22;2632;51.666;7.146;2023-03-21T13:37:56;14.80;99.70
5226;DHT22;2632;51.666;7.146;2023-03-21T13:40:50;14.80;99.90
5226;DHT22;2632;51.666;7.146;2023-03-21T13:43:41;14.70;99.90
5226;DHT22;2632;51.666;7.146;2023-03-21T13:46:09;14.70;99.90
5226;DHT22;2632;51.666;7.146;2023-03-21T13:49:00;14.40;99.90
5226;DHT22;2632;51.666;7.146;2023-03-21T13:56:59;14.90;99.90
5226;DHT22;2632;51.666;7.146;2023-03-21T13:59:41;14.70;99.90
5226;DHT22;2632;51.666;7.146;2023-03-21T14:04:44;15.00;99.60
5226;DHT22;2632;51.666;7.146;2023-03-21T14:07:32;15.30;99.20
5226;DHT22;2632;51.666;7.146;2023-03-21T14:10:18;15.40;99.10
5226;DHT22;2632;51.666;7.146;2023-03-21T14:12:46;14.90;99.40
5226;DHT22;2632;51.666;7.146;2023-03-21T14:15:30;14.90;99.40
5226;DHT22;2632;51.666;7.146;2023-03-21T14:18:01;15.10;99.90
5226;DHT22;2632;51.666;7.146;2023-03-21T14:20:55;15.10;99.80
5226;DHT22;2632;51.666;7.146;2023-03-21T14:23:23;14.70;99.80
5226;DHT22;2632;51.666;7.146;2023-03-21T14:25:49;14.50;99.90
5226;DHT22;2632;51.666;7.146;2023-03-21T14:28:28;14.60;99.90
5226;DHT22;2632;51.666;7.146;2023-03-21T14:30:59;14.50;99.50
5226;DHT22;2632;51.666;7.146;2023-03-21T14:33:34;14.70;99.90
5226;DHT22;2632;51.666;7.146;2023-03-21T14:36:10;15.00;99.90
5226;DHT22;2632;51.666;7.146;2023-03-21T14:38:40;15.40;99.60
5226;DHT22;2632;51.666;7.146;2023-03-21T14:41:28;15.70;98.90
5226;DHT22;2632;51.666;7.146;2023-03-21T14:47:21;15.90;98.00
5226;DHT22;2632;51.666;7.146;2023-03-21T14:49:48;15.70;97.90
5226;DHT22;2632;51.666;7.146;2023-03-21T14:52:21;15.60;98.40
5226;DHT22;2632;51.666;7.146;2023-03-21T14:54:49;15.40;98.50
5226;DHT22;2632;51.666;7.146;2023-03-21T14:57:25;15.60;98.70
5226;DHT22;2632;51.666;7.146;2023-03-21T14:59:57;15.40;97.40
5226;DHT22;2632;51.666;7.146;2023-03-21T15:02:27;15.20;97.90
5226;DHT22;2632;51.666;7.146;2023-03-21T15:04:57;15.20;97.70
5226;DHT22;2632;51.666;7.146;2023-03-21T15:07:32;14.90;97.70
5226;DHT22;2632;51.666;7.146;2023-03-21T15:10:04;14.90;98.70
5226;DHT22;2632;51.666;7.146;2023-03-21T15:12:31;14.90;98.60
5226;DHT22;2632;51.666;7.146;2023-03-21T15:14:59;14.90;99.00
5226;DHT22;2632;51.666;7.146;2023-03-21T15:17:27;15.00;98.60
5226;DHT22;2632;51.666;7.146;2023-03-21T15:19:54;14.90;98.70
5226;DHT22;2632;51.666;7.146;2023-03-21T15:22:27;14.80;99.10
5226;DHT22;2632;51.666;7.146;2023-03-21T15:24:59;14.90;98.70
5226;DHT22;2632;51.666;7.146;2023-03-21T15:27:28;14.80;99.80
5226;DHT22;2632;51.666;7.146;2023-03-21T15:29:56;15.00;99.00
5226;DHT22;2632;51.666;7.146;2023-03-21T15:32:25;15.10;98.50
5226;DHT22;2632;51.666;7.146;2023-03-21T15:34:54;15.30;98.60
5226;DHT22;2632;51.666;7.146;2023-03-21T15:37:26;15.60;97.70
5226;DHT22;2632;51.666;7.146;2023-03-21T15:42:40;15.70;97.30
5226;DHT22;2632;51.666;7.146;2023-03-21T15:45:20;15.80;96.90
5226;DHT22;2632;51.666;7.146;2023-03-21T15:52:52;15.20;97.70
5226;DHT22;2632;51.666;7.146;2023-03-21T15:55:30;15.10;97.90
5226;DHT22;2632;51.666;7.146;2023-03-21T15:58:05;15.10;98.30
5226;DHT22;2632;51.666;7.146;2023-03-21T16:00:39;15.10;97.70
5226;DHT22;2632;51.666;7.146;2023-03-21T16:03:13;15.00;98.40
5226;DHT22;2632;51.666;7.146;2023-03-21T16:05:42;15.00;98.40
5226;DHT22;2632;51.666;7.146;2023-03-21T16:08:27;15.20;98.40
5226;DHT22;2632;51.666;7.146;2023-03-21T16:11:13;15.10;98.70
5226;DHT22;2632;51.666;7.146;2023-03-21T16:13:41;14.90;98.60
5226;DHT22;2632;51.666;7.146;2023-03-21T16:16:16;14.50;99.20
5226;DHT22;2632;51.666;7.146;2023-03-21T16:18:43;14.50;99.50
5226;DHT22;2632;51.666;7.146;2023-03-21T16:21:12;14.40;99.50
5226;DHT22;2632;51.666;7.146;2023-03-21T16:23:39;14.40;99.80
5226;DHT22;2632;51.666;7.146;2023-03-21T16:26:08;14.40;99.70
5226;DHT22;2632;51.666;7.146;2023-03-21T16:28:36;14.30;99.90
5226;DHT22;2632;51.666;7.146;2023-03-21T16:31:02;14.30;99.90
5226;DHT22;2632;51.666;7.146;2023-03-21T16:33:29;14.30;99.90
5226;DHT22;2632;51.666;7.146;2023-03-21T16:35:56;14.10;99.90
5226;DHT22;2632;51.666;7.146;2023-03-21T16:38:23;14.10;99.90
5226;DHT22;2632;51.666;7.146;2023-03-21T16:40:49;14.00;99.90
5226;DHT22;2632;51.666;7.146;2023-03-21T16:43:17;14.10;99.90
5226;DHT22;2632;51.666;7.146;2023-03-21T16:45:43;14.00;99.90
5226;DHT22;2632;51.666;7.146;2023-03-21T16:48:10;14.10;99.90
5226;DHT22;2632;51.666;7.146;2023-03-21T16:50:45;14.00;99.90
5226;DHT22;2632;51.666;7.146;2023-03-21T16:53:12;14.00;99.90
5226;DHT22;2632;51.666;7.146;2023-03-21T16:55:39;13.90;99.90
5226;DHT22;2632;51.666;7.146;2023-03-21T16:58:05;13.80;99.90
5226;DHT22;2632;51.666;7.146;2023-03-21T17:00:32;13.70;99.90
5226;DHT22;2632;51.666;7.146;2023-03-21T17:03:01;13.80;99.90
5226;DHT22;2632;51.666;7.146;2023-03-21T17:05:28;13.60;99.90
5226;DHT22;2632;51.666;7.146;2023-03-21T17:07:58;13.60;99.90
5226;DHT22;2632;51.666;7.146;2023-03-21T17:10:30;13.60;99.90
5226;DHT22;2632;51.666;7.146;2023-03-21T17:12:57;13.70;99.90
5226;DHT22;2632;51.666;7.146;2023-03-21T17:15:23;13.60;99.90
5226;DHT22;2632;51.666;7.146;2023-03-21T17:17:50;13.60;99.90
5226;DHT22;2632;51.666;7.146;2023-03-21T17:20:38;13.50;99.90
5226;DHT22;2632;51.666;7.146;2023-03-21T17:23:07;13.50;99.90
5226;DHT22;2632;51.666;7.146;2023-03-21T17:25:33;13.40;99.90
5226;DHT22;2632;51.666;7.146;2023-03-21T17:28:01;13.40;99.90
5226;DHT22;2632;51.666;7.146;2023-03-21T17:30:33;13.30;99.90
5226;DHT22;2632;51.666;7.146;2023-03-21T17:33:01;13.30;99.90
5226;DHT22;2632;51.666;7.146;2023-03-21T17:35:28;13.30;99.90
5226;DHT22;2632;51.666;7.146;2023-03-21T17:37:55;13.30;99.90
5226;DHT22;2632;51.666;7.146;2023-03-21T17:40:28;13.20;99.90
5226;DHT22;2632;51.666;7.146;2023-03-21T17:42:56;13.40;99.90
5226;DHT22;2632;51.666;7.146;2023-03-21T17:45:23;13.20;99.90
5226;DHT22;2632;51.666;7.146;2023-03-21T17:47:50;13.10;99.90
5226;DHT22;2632;51.666;7.146;2023-03-21T17:50:19;13.10;99.90
5226;DHT22;2632;51.666;7.146;2023-03-21T17:52:47;13.10;99.90
5226;DHT22;2632;51.666;7.146;2023-03-21T17:55:17;13.10;99.90
5226;DHT22;2632;51.666;7.146;2023-03-21T17:57:47;13.00;99.90